sensor_id;sensor_type;location;lat;lon;timestamp;P1;durP1;ratioP1;P2;durP2;ratioP2
13185;SDS011;6658;53.080;7.428;2023-12-28T00:01:16;1.53;;;1.23;;
13185;SDS011;6658;53.080;7.428;2023-12-28T00:03:42;1.37;;;1.27;;
13185;SDS011;6658;53.080;7.428;2023-12-28T00:06:08;1.33;;;1.23;;
13185;SDS011;6658;53.080;7.428;2023-12-28T00:08:35;1.70;;;1.20;;
13185;SDS011;6658;53.080;7.428;2023-12-28T00:11:00;1.97;;;1.30;;
13185;SDS011;6658;53.080;7.428;2023-12-28T00:13:26;1.40;;;1.30;;
13185;SDS011;6658;53.080;7.428;2023-12-28T00:15:52;1.33;;;1.20;;
13185;SDS011;6658;53.080;7.428;2023-12-28T00:18:17;1.33;;;1.23;;
13185;SDS011;6658;53.080;7.428;2023-12-28T00:20:43;1.43;;;1.03;;
13185;SDS011;6658;53.080;7.428;2023-12-28T00:23:08;1.57;;;1.20;;
13185;SDS011;6658;53.080;7.428;2023-12-28T00:25:34;1.47;;;1.33;;
13185;SDS011;6658;53.080;7.428;2023-12-28T00:28:00;1.83;;;1.10;;
13185;SDS011;6658;53.080;7.428;2023-12-28T00:30:25;1.40;;;1.10;;
13185;SDS011;6658;53.080;7.428;2023-12-28T00:32:51;1.10;;;1.00;;
13185;SDS011;6658;53.080;7.428;2023-12-28T00:35:17;2.37;;;1.40;;
13185;SDS011;6658;53.080;7.428;2023-12-28T00:37:42;1.50;;;1.30;;
13185;SDS011;6658;53.080;7.428;2023-12-28T00:40:08;2.13;;;1.50;;
13185;SDS011;6658;53.080;7.428;2023-12-28T00:42:34;1.20;;;1.10;;
13185;SDS011;6658;53.080;7.428;2023-12-28T00:45:00;1.50;;;1.40;;
13185;SDS011;6658;53.080;7.428;2023-12-28T00:47:26;1.30;;;1.20;;
13185;SDS011;6658;53.080;7.428;2023-12-28T00:49:51;2.03;;;1.20;;
13185;SDS011;6658;53.080;7.428;2023-12-28T00:52:17;1.40;;;1.30;;
13185;SDS011;6658;53.080;7.428;2023-12-28T00:54:42;1.70;;;1.37;;
13185;SDS011;6658;53.080;7.428;2023-12-28T00:57:08;1.50;;;1.30;;
13185;SDS011;6658;53.080;7.428;2023-12-28T00:59:34;1.63;;;1.43;;
13185;SDS011;6658;53.080;7.428;2023-12-28T01:01:59;1.30;;;1.17;;
13185;SDS011;6658;53.080;7.428;2023-12-28T01:04:25;2.50;;;1.50;;
13185;SDS011;6658;53.080;7.428;2023-12-28T01:06:53;1.80;;;1.40;;
13185;SDS011;6658;53.080;7.428;2023-12-28T01:09:19;2.83;;;1.23;;
13185;SDS011;6658;53.080;7.428;2023-12-28T01:11:45;1.40;;;1.20;;
13185;SDS011;6658;53.080;7.428;2023-12-28T01:14:11;1.30;;;1.20;;
13185;SDS011;6658;53.080;7.428;2023-12-28T01:16:37;1.50;;;1.37;;
13185;SDS011;6658;53.080;7.428;2023-12-28T01:19:04;1.60;;;1.50;;
13185;SDS011;6658;53.080;7.428;2023-12-28T01:21:30;1.70;;;1.50;;
13185;SDS011;6658;53.080;7.428;2023-12-28T01:23:56;1.90;;;1.30;;
13185;SDS011;6658;53.080;7.428;2023-12-28T01:26:22;1.70;;;1.33;;
13185;SDS011;6658;53.080;7.428;2023-12-28T01:28:47;1.60;;;1.50;;
13185;SDS011;6658;53.080;7.428;2023-12-28T01:31:13;1.83;;;1.37;;
13185;SDS011;6658;53.080;7.428;2023-12-28T01:33:39;1.97;;;1.77;;
13185;SDS011;6658;53.080;7.428;2023-12-28T01:36:17;1.40;;;1.20;;
13185;SDS011;6658;53.080;7.428;2023-12-28T01:38:44;1.60;;;1.50;;
13185;SDS011;6658;53.080;7.428;2023-12-28T01:41:10;2.37;;;2.13;;
13185;SDS011;6658;53.080;7.428;2023-12-28T01:43:37;1.50;;;1.40;;
13185;SDS011;6658;53.080;7.428;2023-12-28T01:46:03;2.03;;;1.60;;
13185;SDS011;6658;53.080;7.428;2023-12-28T01:48:30;2.17;;;1.50;;
13185;SDS011;6658;53.080;7.428;2023-12-28T01:50:57;1.63;;;1.50;;
13185;SDS011;6658;53.080;7.428;2023-12-28T01:53:24;2.07;;;1.60;;
13185;SDS011;6658;53.080;7.428;2023-12-28T01:55:50;2.20;;;1.67;;
13185;SDS011;6658;53.080;7.428;2023-12-28T01:58:16;1.93;;;1.47;;
13185;SDS011;6658;53.080;7.428;2023-12-28T02:00:43;1.53;;;1.40;;
13185;SDS011;6658;53.080;7.428;2023-12-28T02:03:10;2.57;;;1.50;;
13185;SDS011;6658;53.080;7.428;2023-12-28T02:05:36;1.57;;;1.47;;
13185;SDS011;6658;53.080;7.428;2023-12-28T02:08:02;2.10;;;1.63;;
13185;SDS011;6658;53.080;7.428;2023-12-28T02:10:29;2.47;;;1.60;;
13185;SDS011;6658;53.080;7.428;2023-12-28T02:12:54;2.73;;;1.40;;
13185;SDS011;6658;53.080;7.428;2023-12-28T02:15:21;2.70;;;1.40;;
13185;SDS011;6658;53.080;7.428;2023-12-28T02:17:47;2.33;;;1.87;;
13185;SDS011;6658;53.080;7.428;2023-12-28T02:20:23;2.05;;;1.60;;
13185;SDS011;6658;53.080;7.428;2023-12-28T02:22:50;3.37;;;1.73;;
13185;SDS011;6658;53.080;7.428;2023-12-28T02:25:17;2.70;;;1.40;;
13185;SDS011;6658;53.080;7.428;2023-12-28T02:27:43;1.30;;;1.20;;
13185;SDS011;6658;53.080;7.428;2023-12-28T02:30:11;2.73;;;1.83;;
13185;SDS011;6658;53.080;7.428;2023-12-28T02:35:55;4.20;;;1.80;;
13185;SDS011;6658;53.080;7.428;2023-12-28T02:38:05;1.50;;;1.40;;
13185;SDS011;6658;53.080;7.428;2023-12-28T02:40:36;1.53;;;1.40;;
13185;SDS011;6658;53.080;7.428;2023-12-28T02:43:04;2.70;;;1.50;;
13185;SDS011;6658;53.080;7.428;2023-12-28T02:45:34;1.40;;;1.30;;
13185;SDS011;6658;53.080;7.428;2023-12-28T02:48:00;2.60;;;1.37;;
13185;SDS011;6658;53.080;7.428;2023-12-28T02:50:26;2.27;;;1.43;;
13185;SDS011;6658;53.080;7.428;2023-12-28T02:52:52;1.30;;;1.20;;
13185;SDS011;6658;53.080;7.428;2023-12-28T02:55:18;2.77;;;1.70;;
13185;SDS011;6658;53.080;7.428;2023-12-28T02:57:44;2.43;;;2.07;;
13185;SDS011;6658;53.080;7.428;2023-12-28T03:00:10;3.37;;;1.50;;
13185;SDS011;6658;53.080;7.428;2023-12-28T03:02:37;2.60;;;1.57;;
13185;SDS011;6658;53.080;7.428;2023-12-28T03:05:06;1.70;;;1.40;;
13185;SDS011;6658;53.080;7.428;2023-12-28T03:07:32;2.47;;;1.53;;
13185;SDS011;6658;53.080;7.428;2023-12-28T03:09:59;2.30;;;1.50;;
13185;SDS011;6658;53.080;7.428;2023-12-28T03:12:25;3.13;;;1.47;;
13185;SDS011;6658;53.080;7.428;2023-12-28T03:14:52;2.20;;;1.53;;
13185;SDS011;6658;53.080;7.428;2023-12-28T03:17:17;3.43;;;1.63;;
13185;SDS011;6658;53.080;7.428;2023-12-28T03:19:43;3.00;;;1.60;;
13185;SDS011;6658;53.080;7.428;2023-12-28T03:22:09;2.07;;;1.70;;
13185;SDS011;6658;53.080;7.428;2023-12-28T03:24:36;3.53;;;1.97;;
13185;SDS011;6658;53.080;7.428;2023-12-28T03:27:02;2.80;;;1.67;;
13185;SDS011;6658;53.080;7.428;2023-12-28T03:29:29;2.40;;;1.47;;
13185;SDS011;6658;53.080;7.428;2023-12-28T03:31:54;2.93;;;1.70;;
13185;SDS011;6658;53.080;7.428;2023-12-28T03:34:20;1.67;;;1.53;;
13185;SDS011;6658;53.080;7.428;2023-12-28T03:36:47;2.23;;;1.60;;
13185;SDS011;6658;53.080;7.428;2023-12-28T03:39:14;3.37;;;1.33;;
13185;SDS011;6658;53.080;7.428;2023-12-28T03:41:39;3.80;;;1.50;;
13185;SDS011;6658;53.080;7.428;2023-12-28T03:44:05;2.47;;;1.47;;
13185;SDS011;6658;53.080;7.428;2023-12-28T03:46:31;2.03;;;1.10;;
13185;SDS011;6658;53.080;7.428;2023-12-28T03:48:57;3.30;;;1.50;;
13185;SDS011;6658;53.080;7.428;2023-12-28T03:51:22;2.33;;;1.60;;
13185;SDS011;6658;53.080;7.428;2023-12-28T03:53:48;2.13;;;1.50;;
13185;SDS011;6658;53.080;7.428;2023-12-28T03:58:50;2.70;;;1.30;;
13185;SDS011;6658;53.080;7.428;2023-12-28T04:01:17;2.10;;;1.60;;
13185;SDS011;6658;53.080;7.428;2023-12-28T04:03:44;3.87;;;1.70;;
13185;SDS011;6658;53.080;7.428;2023-12-28T04:06:10;1.50;;;1.40;;
13185;SDS011;6658;53.080;7.428;2023-12-28T04:08:35;2.10;;;1.63;;
13185;SDS011;6658;53.080;7.428;2023-12-28T04:11:01;2.77;;;1.60;;
13185;SDS011;6658;53.080;7.428;2023-12-28T04:13:27;3.93;;;1.63;;
13185;SDS011;6658;53.080;7.428;2023-12-28T04:15:52;2.50;;;1.63;;
13185;SDS011;6658;53.080;7.428;2023-12-28T04:18:18;3.37;;;1.40;;
13185;SDS011;6658;53.080;7.428;2023-12-28T04:20:43;3.33;;;1.57;;
13185;SDS011;6658;53.080;7.428;2023-12-28T04:23:12;5.10;;;1.83;;
13185;SDS011;6658;53.080;7.428;2023-12-28T04:25:38;3.17;;;1.40;;
13185;SDS011;6658;53.080;7.428;2023-12-28T04:28:04;2.57;;;1.40;;
13185;SDS011;6658;53.080;7.428;2023-12-28T04:30:29;2.67;;;1.40;;
13185;SDS011;6658;53.080;7.428;2023-12-28T04:32:55;2.20;;;1.23;;
13185;SDS011;6658;53.080;7.428;2023-12-28T04:35:21;2.07;;;1.50;;
13185;SDS011;6658;53.080;7.428;2023-12-28T04:37:46;1.77;;;1.20;;
13185;SDS011;6658;53.080;7.428;2023-12-28T04:40:12;3.87;;;1.50;;
13185;SDS011;6658;53.080;7.428;2023-12-28T04:42:39;2.20;;;1.23;;
13185;SDS011;6658;53.080;7.428;2023-12-28T04:45:06;3.23;;;1.60;;
13185;SDS011;6658;53.080;7.428;2023-12-28T04:47:32;3.37;;;1.97;;
13185;SDS011;6658;53.080;7.428;2023-12-28T04:49:57;2.20;;;1.40;;
13185;SDS011;6658;53.080;7.428;2023-12-28T04:52:23;3.43;;;1.50;;
13185;SDS011;6658;53.080;7.428;2023-12-28T04:54:49;2.97;;;1.73;;
13185;SDS011;6658;53.080;7.428;2023-12-28T04:57:15;3.33;;;1.30;;
13185;SDS011;6658;53.080;7.428;2023-12-28T04:59:40;4.10;;;1.53;;
13185;SDS011;6658;53.080;7.428;2023-12-28T05:02:07;2.53;;;1.40;;
13185;SDS011;6658;53.080;7.428;2023-12-28T05:04:33;2.03;;;1.27;;
13185;SDS011;6658;53.080;7.428;2023-12-28T05:07:01;2.30;;;1.20;;
13185;SDS011;6658;53.080;7.428;2023-12-28T05:09:27;2.63;;;1.67;;
13185;SDS011;6658;53.080;7.428;2023-12-28T05:11:53;3.70;;;1.30;;
13185;SDS011;6658;53.080;7.428;2023-12-28T05:14:18;3.53;;;1.63;;
13185;SDS011;6658;53.080;7.428;2023-12-28T05:16:44;3.53;;;1.80;;
13185;SDS011;6658;53.080;7.428;2023-12-28T05:19:09;3.93;;;1.40;;
13185;SDS011;6658;53.080;7.428;2023-12-28T05:21:35;2.07;;;1.60;;
13185;SDS011;6658;53.080;7.428;2023-12-28T05:24:01;2.23;;;1.17;;
13185;SDS011;6658;53.080;7.428;2023-12-28T05:26:27;1.83;;;1.00;;
13185;SDS011;6658;53.080;7.428;2023-12-28T05:28:52;4.03;;;1.60;;
13185;SDS011;6658;53.080;7.428;2023-12-28T05:31:18;2.87;;;1.27;;
13185;SDS011;6658;53.080;7.428;2023-12-28T05:33:44;3.20;;;1.37;;
13185;SDS011;6658;53.080;7.428;2023-12-28T05:36:09;2.67;;;0.97;;
13185;SDS011;6658;53.080;7.428;2023-12-28T05:38:35;4.07;;;1.37;;
13185;SDS011;6658;53.080;7.428;2023-12-28T05:41:00;2.47;;;1.70;;
13185;SDS011;6658;53.080;7.428;2023-12-28T05:43:26;2.97;;;1.20;;
13185;SDS011;6658;53.080;7.428;2023-12-28T05:45:52;4.10;;;1.43;;
13185;SDS011;6658;53.080;7.428;2023-12-28T05:48:17;4.97;;;1.67;;
13185;SDS011;6658;53.080;7.428;2023-12-28T05:50:43;2.87;;;1.23;;
13185;SDS011;6658;53.080;7.428;2023-12-28T05:53:09;3.90;;;1.57;;
13185;SDS011;6658;53.080;7.428;2023-12-28T05:55:39;3.07;;;1.50;;
13185;SDS011;6658;53.080;7.428;2023-12-28T05:58:05;5.23;;;1.77;;
13185;SDS011;6658;53.080;7.428;2023-12-28T06:00:31;3.20;;;1.50;;
13185;SDS011;6658;53.080;7.428;2023-12-28T06:02:57;4.30;;;1.87;;
13185;SDS011;6658;53.080;7.428;2023-12-28T06:05:22;3.70;;;1.53;;
13185;SDS011;6658;53.080;7.428;2023-12-28T06:07:48;3.27;;;1.30;;
13185;SDS011;6658;53.080;7.428;2023-12-28T06:10:14;3.50;;;1.40;;
13185;SDS011;6658;53.080;7.428;2023-12-28T06:12:40;4.90;;;1.50;;
13185;SDS011;6658;53.080;7.428;2023-12-28T06:15:05;2.40;;;1.20;;
13185;SDS011;6658;53.080;7.428;2023-12-28T06:17:31;2.77;;;1.53;;
13185;SDS011;6658;53.080;7.428;2023-12-28T06:19:57;5.80;;;2.00;;
13185;SDS011;6658;53.080;7.428;2023-12-28T06:22:23;4.00;;;1.57;;
13185;SDS011;6658;53.080;7.428;2023-12-28T06:24:52;4.53;;;1.37;;
13185;SDS011;6658;53.080;7.428;2023-12-28T06:27:21;5.67;;;1.63;;
13185;SDS011;6658;53.080;7.428;2023-12-28T06:29:48;4.43;;;1.57;;
13185;SDS011;6658;53.080;7.428;2023-12-28T06:32:14;3.83;;;1.90;;
13185;SDS011;6658;53.080;7.428;2023-12-28T06:34:40;5.93;;;1.57;;
13185;SDS011;6658;53.080;7.428;2023-12-28T06:37:06;3.70;;;1.40;;
13185;SDS011;6658;53.080;7.428;2023-12-28T06:39:31;4.00;;;1.37;;
13185;SDS011;6658;53.080;7.428;2023-12-28T06:41:57;4.33;;;1.47;;
13185;SDS011;6658;53.080;7.428;2023-12-28T06:44:23;3.73;;;1.83;;
13185;SDS011;6658;53.080;7.428;2023-12-28T06:46:48;3.30;;;1.93;;
13185;SDS011;6658;53.080;7.428;2023-12-28T06:49:14;4.90;;;1.60;;
13185;SDS011;6658;53.080;7.428;2023-12-28T06:51:40;4.20;;;1.27;;
13185;SDS011;6658;53.080;7.428;2023-12-28T06:54:07;3.90;;;1.63;;
13185;SDS011;6658;53.080;7.428;2023-12-28T06:56:34;3.00;;;1.90;;
13185;SDS011;6658;53.080;7.428;2023-12-28T06:58:59;4.50;;;1.70;;
13185;SDS011;6658;53.080;7.428;2023-12-28T07:01:25;3.43;;;1.40;;
13185;SDS011;6658;53.080;7.428;2023-12-28T07:03:51;3.10;;;1.57;;
13185;SDS011;6658;53.080;7.428;2023-12-28T07:06:17;5.60;;;1.40;;
13185;SDS011;6658;53.080;7.428;2023-12-28T07:08:43;2.27;;;1.33;;
13185;SDS011;6658;53.080;7.428;2023-12-28T07:11:11;4.17;;;1.40;;
13185;SDS011;6658;53.080;7.428;2023-12-28T07:13:37;7.37;;;2.00;;
13185;SDS011;6658;53.080;7.428;2023-12-28T07:16:03;3.30;;;1.20;;
13185;SDS011;6658;53.080;7.428;2023-12-28T07:18:29;4.57;;;1.67;;
13185;SDS011;6658;53.080;7.428;2023-12-28T07:20:55;4.33;;;1.20;;
13185;SDS011;6658;53.080;7.428;2023-12-28T07:23:21;3.57;;;1.93;;
13185;SDS011;6658;53.080;7.428;2023-12-28T07:25:47;2.57;;;1.20;;
13185;SDS011;6658;53.080;7.428;2023-12-28T07:28:12;3.97;;;1.43;;
13185;SDS011;6658;53.080;7.428;2023-12-28T07:30:38;5.57;;;1.97;;
13185;SDS011;6658;53.080;7.428;2023-12-28T07:33:06;7.53;;;2.13;;
13185;SDS011;6658;53.080;7.428;2023-12-28T07:35:31;4.43;;;1.90;;
13185;SDS011;6658;53.080;7.428;2023-12-28T07:37:57;3.33;;;1.53;;
13185;SDS011;6658;53.080;7.428;2023-12-28T07:40:23;6.03;;;1.93;;
13185;SDS011;6658;53.080;7.428;2023-12-28T07:42:49;6.07;;;1.97;;
13185;SDS011;6658;53.080;7.428;2023-12-28T07:45:14;5.40;;;1.83;;
13185;SDS011;6658;53.080;7.428;2023-12-28T07:47:42;5.60;;;1.60;;
13185;SDS011;6658;53.080;7.428;2023-12-28T07:50:08;4.17;;;1.43;;
13185;SDS011;6658;53.080;7.428;2023-12-28T07:52:35;5.93;;;1.80;;
13185;SDS011;6658;53.080;7.428;2023-12-28T07:55:02;7.37;;;1.90;;
13185;SDS011;6658;53.080;7.428;2023-12-28T07:57:29;5.97;;;1.90;;
13185;SDS011;6658;53.080;7.428;2023-12-28T07:59:56;4.30;;;1.87;;
13185;SDS011;6658;53.080;7.428;2023-12-28T08:02:21;5.60;;;2.00;;
13185;SDS011;6658;53.080;7.428;2023-12-28T08:04:47;5.37;;;1.83;;
13185;SDS011;6658;53.080;7.428;2023-12-28T08:07:13;5.67;;;1.43;;
13185;SDS011;6658;53.080;7.428;2023-12-28T08:09:39;6.50;;;1.97;;
13185;SDS011;6658;53.080;7.428;2023-12-28T08:12:05;9.57;;;2.27;;
13185;SDS011;6658;53.080;7.428;2023-12-28T08:14:31;8.73;;;2.30;;
13185;SDS011;6658;53.080;7.428;2023-12-28T08:16:56;5.30;;;1.70;;
13185;SDS011;6658;53.080;7.428;2023-12-28T08:19:22;6.47;;;1.63;;
13185;SDS011;6658;53.080;7.428;2023-12-28T08:21:48;5.63;;;2.40;;
13185;SDS011;6658;53.080;7.428;2023-12-28T08:24:13;6.10;;;2.13;;
13185;SDS011;6658;53.080;7.428;2023-12-28T08:26:39;4.37;;;1.90;;
13185;SDS011;6658;53.080;7.428;2023-12-28T08:29:05;9.03;;;2.53;;
13185;SDS011;6658;53.080;7.428;2023-12-28T08:31:31;5.53;;;2.00;;
13185;SDS011;6658;53.080;7.428;2023-12-28T08:33:56;4.07;;;1.70;;
13185;SDS011;6658;53.080;7.428;2023-12-28T08:36:22;4.57;;;1.90;;
13185;SDS011;6658;53.080;7.428;2023-12-28T08:38:48;5.83;;;1.97;;
13185;SDS011;6658;53.080;7.428;2023-12-28T08:41:20;4.93;;;1.93;;
13185;SDS011;6658;53.080;7.428;2023-12-28T08:43:48;6.03;;;2.43;;
13185;SDS011;6658;53.080;7.428;2023-12-28T08:46:15;4.90;;;1.90;;
13185;SDS011;6658;53.080;7.428;2023-12-28T08:48:41;6.20;;;1.87;;
13185;SDS011;6658;53.080;7.428;2023-12-28T08:51:09;5.80;;;2.20;;
13185;SDS011;6658;53.080;7.428;2023-12-28T08:53:36;6.43;;;2.47;;
13185;SDS011;6658;53.080;7.428;2023-12-28T08:56:15;7.13;;;2.07;;
13185;SDS011;6658;53.080;7.428;2023-12-28T08:58:42;6.93;;;2.27;;
13185;SDS011;6658;53.080;7.428;2023-12-28T09:01:15;4.83;;;1.77;;
13185;SDS011;6658;53.080;7.428;2023-12-28T09:03:51;8.10;;;2.30;;
13185;SDS011;6658;53.080;7.428;2023-12-28T09:06:18;4.63;;;2.00;;
13185;SDS011;6658;53.080;7.428;2023-12-28T09:08:44;5.70;;;2.40;;
13185;SDS011;6658;53.080;7.428;2023-12-28T09:11:15;6.03;;;2.00;;
13185;SDS011;6658;53.080;7.428;2023-12-28T09:13:41;6.80;;;2.30;;
13185;SDS011;6658;53.080;7.428;2023-12-28T09:16:08;5.80;;;1.97;;
13185;SDS011;6658;53.080;7.428;2023-12-28T09:18:36;8.10;;;2.50;;
13185;SDS011;6658;53.080;7.428;2023-12-28T09:21:05;5.47;;;1.90;;
13185;SDS011;6658;53.080;7.428;2023-12-28T09:23:32;9.00;;;2.17;;
13185;SDS011;6658;53.080;7.428;2023-12-28T09:25:59;5.47;;;2.07;;
13185;SDS011;6658;53.080;7.428;2023-12-28T09:28:25;8.77;;;2.40;;
13185;SDS011;6658;53.080;7.428;2023-12-28T09:30:51;9.33;;;2.67;;
13185;SDS011;6658;53.080;7.428;2023-12-28T09:33:17;5.90;;;2.40;;
13185;SDS011;6658;53.080;7.428;2023-12-28T09:35:42;8.13;;;2.10;;
13185;SDS011;6658;53.080;7.428;2023-12-28T09:38:08;10.90;;;2.93;;
13185;SDS011;6658;53.080;7.428;2023-12-28T09:40:53;8.07;;;2.90;;
13185;SDS011;6658;53.080;7.428;2023-12-28T09:43:26;7.70;;;2.60;;
13185;SDS011;6658;53.080;7.428;2023-12-28T09:46:05;8.07;;;2.83;;
13185;SDS011;6658;53.080;7.428;2023-12-28T09:48:36;7.13;;;2.40;;
13185;SDS011;6658;53.080;7.428;2023-12-28T09:51:04;7.53;;;2.23;;
13185;SDS011;6658;53.080;7.428;2023-12-28T09:53:30;8.77;;;2.27;;
13185;SDS011;6658;53.080;7.428;2023-12-28T09:55:56;8.17;;;1.83;;
13185;SDS011;6658;53.080;7.428;2023-12-28T09:58:22;8.67;;;2.67;;
13185;SDS011;6658;53.080;7.428;2023-12-28T10:00:49;8.73;;;2.00;;
13185;SDS011;6658;53.080;7.428;2023-12-28T10:03:15;9.23;;;2.83;;
13185;SDS011;6658;53.080;7.428;2023-12-28T10:05:42;5.37;;;2.00;;
13185;SDS011;6658;53.080;7.428;2023-12-28T10:08:10;7.63;;;2.07;;
13185;SDS011;6658;53.080;7.428;2023-12-28T10:10:38;5.20;;;2.47;;
13185;SDS011;6658;53.080;7.428;2023-12-28T10:13:06;6.83;;;2.63;;
13185;SDS011;6658;53.080;7.428;2023-12-28T10:15:35;7.93;;;2.90;;
13185;SDS011;6658;53.080;7.428;2023-12-28T10:18:02;6.00;;;2.80;;
13185;SDS011;6658;53.080;7.428;2023-12-28T10:20:29;7.17;;;2.57;;
13185;SDS011;6658;53.080;7.428;2023-12-28T10:22:55;6.80;;;2.57;;
13185;SDS011;6658;53.080;7.428;2023-12-28T10:25:22;6.97;;;2.43;;
13185;SDS011;6658;53.080;7.428;2023-12-28T10:27:52;6.83;;;2.27;;
13185;SDS011;6658;53.080;7.428;2023-12-28T10:30:21;7.23;;;2.87;;
13185;SDS011;6658;53.080;7.428;2023-12-28T10:32:47;5.57;;;2.30;;
13185;SDS011;6658;53.080;7.428;2023-12-28T10:35:13;5.77;;;2.03;;
13185;SDS011;6658;53.080;7.428;2023-12-28T10:37:40;8.57;;;2.60;;
13185;SDS011;6658;53.080;7.428;2023-12-28T10:40:07;9.67;;;2.87;;
13185;SDS011;6658;53.080;7.428;2023-12-28T10:45:09;7.80;;;2.77;;
13185;SDS011;6658;53.080;7.428;2023-12-28T10:47:37;9.40;;;2.73;;
13185;SDS011;6658;53.080;7.428;2023-12-28T10:50:04;8.87;;;3.53;;
13185;SDS011;6658;53.080;7.428;2023-12-28T10:52:31;6.07;;;2.70;;
13185;SDS011;6658;53.080;7.428;2023-12-28T10:55:08;7.13;;;2.63;;
13185;SDS011;6658;53.080;7.428;2023-12-28T11:00:58;5.10;;;2.27;;
13185;SDS011;6658;53.080;7.428;2023-12-28T11:03:27;5.60;;;2.10;;
13185;SDS011;6658;53.080;7.428;2023-12-28T11:05:59;7.80;;;2.37;;
13185;SDS011;6658;53.080;7.428;2023-12-28T11:08:27;5.87;;;2.17;;
13185;SDS011;6658;53.080;7.428;2023-12-28T11:10:55;6.83;;;2.30;;
13185;SDS011;6658;53.080;7.428;2023-12-28T11:13:22;8.73;;;2.80;;
13185;SDS011;6658;53.080;7.428;2023-12-28T11:15:48;8.97;;;2.70;;
13185;SDS011;6658;53.080;7.428;2023-12-28T11:18:18;8.20;;;2.23;;
13185;SDS011;6658;53.080;7.428;2023-12-28T11:20:45;7.37;;;2.30;;
13185;SDS011;6658;53.080;7.428;2023-12-28T11:23:12;7.10;;;2.70;;
13185;SDS011;6658;53.080;7.428;2023-12-28T11:25:38;7.00;;;2.33;;
13185;SDS011;6658;53.080;7.428;2023-12-28T11:28:10;10.47;;;2.80;;
13185;SDS011;6658;53.080;7.428;2023-12-28T11:30:37;6.17;;;2.47;;
13185;SDS011;6658;53.080;7.428;2023-12-28T11:33:04;7.93;;;2.27;;
13185;SDS011;6658;53.080;7.428;2023-12-28T11:35:34;8.33;;;2.50;;
13185;SDS011;6658;53.080;7.428;2023-12-28T11:38:12;8.03;;;2.70;;
13185;SDS011;6658;53.080;7.428;2023-12-28T11:40:42;6.30;;;2.07;;
13185;SDS011;6658;53.080;7.428;2023-12-28T11:43:15;7.20;;;2.37;;
13185;SDS011;6658;53.080;7.428;2023-12-28T11:45:50;6.73;;;2.23;;
13185;SDS011;6658;53.080;7.428;2023-12-28T11:48:25;5.97;;;2.20;;
13185;SDS011;6658;53.080;7.428;2023-12-28T11:50:54;7.00;;;2.23;;
13185;SDS011;6658;53.080;7.428;2023-12-28T11:53:24;4.60;;;1.83;;
13185;SDS011;6658;53.080;7.428;2023-12-28T11:55:50;8.30;;;2.67;;
13185;SDS011;6658;53.080;7.428;2023-12-28T11:58:17;7.57;;;2.37;;
13185;SDS011;6658;53.080;7.428;2023-12-28T12:00:43;7.10;;;2.33;;
13185;SDS011;6658;53.080;7.428;2023-12-28T12:03:09;8.73;;;2.50;;
13185;SDS011;6658;53.080;7.428;2023-12-28T12:05:36;7.00;;;2.13;;
13185;SDS011;6658;53.080;7.428;2023-12-28T12:08:02;7.97;;;2.40;;
13185;SDS011;6658;53.080;7.428;2023-12-28T12:10:28;9.67;;;2.80;;
13185;SDS011;6658;53.080;7.428;2023-12-28T12:12:54;6.50;;;2.70;;
13185;SDS011;6658;53.080;7.428;2023-12-28T12:15:20;7.70;;;2.60;;
13185;SDS011;6658;53.080;7.428;2023-12-28T12:17:46;7.93;;;2.23;;
13185;SDS011;6658;53.080;7.428;2023-12-28T12:20:12;6.93;;;2.73;;
13185;SDS011;6658;53.080;7.428;2023-12-28T12:22:40;7.23;;;3.03;;
13185;SDS011;6658;53.080;7.428;2023-12-28T12:25:05;6.23;;;2.73;;
13185;SDS011;6658;53.080;7.428;2023-12-28T12:27:32;8.03;;;2.33;;
13185;SDS011;6658;53.080;7.428;2023-12-28T12:29:59;8.67;;;2.40;;
13185;SDS011;6658;53.080;7.428;2023-12-28T12:32:24;7.30;;;2.53;;
13185;SDS011;6658;53.080;7.428;2023-12-28T12:34:51;8.83;;;2.73;;
13185;SDS011;6658;53.080;7.428;2023-12-28T12:37:17;10.63;;;2.40;;
13185;SDS011;6658;53.080;7.428;2023-12-28T12:39:43;7.83;;;2.70;;
13185;SDS011;6658;53.080;7.428;2023-12-28T12:42:13;6.53;;;1.90;;
13185;SDS011;6658;53.080;7.428;2023-12-28T12:44:39;8.53;;;2.40;;
13185;SDS011;6658;53.080;7.428;2023-12-28T12:47:05;8.13;;;2.97;;
13185;SDS011;6658;53.080;7.428;2023-12-28T12:49:32;9.23;;;2.43;;
13185;SDS011;6658;53.080;7.428;2023-12-28T12:51:58;7.57;;;2.33;;
13185;SDS011;6658;53.080;7.428;2023-12-28T12:54:23;7.67;;;2.37;;
13185;SDS011;6658;53.080;7.428;2023-12-28T12:56:52;8.03;;;3.23;;
13185;SDS011;6658;53.080;7.428;2023-12-28T12:59:22;6.07;;;2.10;;
13185;SDS011;6658;53.080;7.428;2023-12-28T13:01:48;9.00;;;2.37;;
13185;SDS011;6658;53.080;7.428;2023-12-28T13:04:14;10.13;;;3.10;;
13185;SDS011;6658;53.080;7.428;2023-12-28T13:06:41;7.50;;;3.30;;
13185;SDS011;6658;53.080;7.428;2023-12-28T13:09:07;6.87;;;3.00;;
13185;SDS011;6658;53.080;7.428;2023-12-28T13:11:35;8.33;;;3.00;;
13185;SDS011;6658;53.080;7.428;2023-12-28T13:14:01;7.23;;;3.03;;
13185;SDS011;6658;53.080;7.428;2023-12-28T13:16:27;9.70;;;3.30;;
13185;SDS011;6658;53.080;7.428;2023-12-28T13:18:53;8.67;;;2.63;;
13185;SDS011;6658;53.080;7.428;2023-12-28T13:21:19;8.63;;;2.60;;
13185;SDS011;6658;53.080;7.428;2023-12-28T13:23:45;6.33;;;2.83;;
13185;SDS011;6658;53.080;7.428;2023-12-28T13:26:10;5.53;;;2.43;;
13185;SDS011;6658;53.080;7.428;2023-12-28T13:28:36;9.07;;;2.60;;
13185;SDS011;6658;53.080;7.428;2023-12-28T13:31:02;9.27;;;3.43;;
13185;SDS011;6658;53.080;7.428;2023-12-28T13:33:28;7.03;;;3.10;;
13185;SDS011;6658;53.080;7.428;2023-12-28T13:35:54;9.00;;;2.77;;
13185;SDS011;6658;53.080;7.428;2023-12-28T13:38:20;7.20;;;2.63;;
13185;SDS011;6658;53.080;7.428;2023-12-28T13:40:46;7.37;;;2.30;;
13185;SDS011;6658;53.080;7.428;2023-12-28T13:43:12;8.77;;;2.33;;
13185;SDS011;6658;53.080;7.428;2023-12-28T13:45:37;8.47;;;3.27;;
13185;SDS011;6658;53.080;7.428;2023-12-28T13:48:03;7.67;;;3.17;;
13185;SDS011;6658;53.080;7.428;2023-12-28T13:50:33;5.63;;;2.73;;
13185;SDS011;6658;53.080;7.428;2023-12-28T13:52:59;6.93;;;2.27;;
13185;SDS011;6658;53.080;7.428;2023-12-28T13:55:25;7.93;;;2.63;;
13185;SDS011;6658;53.080;7.428;2023-12-28T13:57:50;7.60;;;3.27;;
13185;SDS011;6658;53.080;7.428;2023-12-28T14:00:16;9.37;;;2.87;;
13185;SDS011;6658;53.080;7.428;2023-12-28T14:02:42;6.70;;;2.80;;
13185;SDS011;6658;53.080;7.428;2023-12-28T14:05:11;8.07;;;2.80;;
13185;SDS011;6658;53.080;7.428;2023-12-28T14:07:37;16.10;;;10.60;;
13185;SDS011;6658;53.080;7.428;2023-12-28T14:10:03;6.47;;;2.23;;
13185;SDS011;6658;53.080;7.428;2023-12-28T14:12:29;7.87;;;3.00;;
13185;SDS011;6658;53.080;7.428;2023-12-28T14:14:55;9.60;;;2.77;;
13185;SDS011;6658;53.080;7.428;2023-12-28T14:17:21;8.80;;;2.60;;
13185;SDS011;6658;53.080;7.428;2023-12-28T14:19:47;9.60;;;2.67;;
13185;SDS011;6658;53.080;7.428;2023-12-28T14:22:12;8.23;;;3.63;;
13185;SDS011;6658;53.080;7.428;2023-12-28T14:24:38;9.07;;;3.57;;
13185;SDS011;6658;53.080;7.428;2023-12-28T14:27:04;7.23;;;3.03;;
13185;SDS011;6658;53.080;7.428;2023-12-28T14:29:31;9.27;;;2.43;;
13185;SDS011;6658;53.080;7.428;2023-12-28T14:31:57;7.90;;;3.10;;
13185;SDS011;6658;53.080;7.428;2023-12-28T14:34:23;6.00;;;2.30;;
13185;SDS011;6658;53.080;7.428;2023-12-28T14:36:49;9.20;;;2.70;;
13185;SDS011;6658;53.080;7.428;2023-12-28T14:39:17;9.83;;;2.73;;
13185;SDS011;6658;53.080;7.428;2023-12-28T14:41:46;4.97;;;2.30;;
13185;SDS011;6658;53.080;7.428;2023-12-28T14:44:11;6.93;;;2.77;;
13185;SDS011;6658;53.080;7.428;2023-12-28T14:46:37;7.50;;;3.63;;
13185;SDS011;6658;53.080;7.428;2023-12-28T14:49:03;10.63;;;2.67;;
13185;SDS011;6658;53.080;7.428;2023-12-28T14:51:30;7.70;;;2.60;;
13185;SDS011;6658;53.080;7.428;2023-12-28T14:53:56;5.70;;;2.60;;
13185;SDS011;6658;53.080;7.428;2023-12-28T14:56:21;8.63;;;3.63;;
13185;SDS011;6658;53.080;7.428;2023-12-28T14:58:47;8.13;;;2.70;;
13185;SDS011;6658;53.080;7.428;2023-12-28T15:01:13;5.13;;;2.67;;
13185;SDS011;6658;53.080;7.428;2023-12-28T15:03:40;11.60;;;3.50;;
13185;SDS011;6658;53.080;7.428;2023-12-28T15:06:07;13.03;;;3.23;;
13185;SDS011;6658;53.080;7.428;2023-12-28T15:08:32;7.13;;;2.47;;